DXXX/LFW METAR and TAF weather

Enter ICAO airport designator
Station Type Date Time Source
DXXX METAR 2020/11/25 22:00 UTC NOAA

DXXX 252200Z 22008KT 9999 TS SCT012 FEW020CB 28/25 Q1012 NOSIG


Station Type Date Time Source
DXXX Decoded METAR 2020/11/25 22:00 UTC NOAA

Lome, Togo (DXXX) 06-10N 001-15E 25M
Nov 25, 2020 - 05:00 PM EST / 2020.11.25 2200 UTC
Wind: from the SW (220 degrees) at 9 MPH (8 KT):0
Visibility: greater than 7 mile(s):0
Sky conditions: partly cloudy
Weather: thunder; Cumulonimbus clouds observed
Temperature: 82 F (28 C)
Dew Point: 77 F (25 C)
Relative Humidity: 83%
Pressure (altimeter): 29.88 in. Hg (1012 hPa)
ob: DXXX 252200Z 22008KT 9999 TS SCT012 FEW020CB 28/25 Q1012 NOSIG
cycle: 22

Station Type Date Time Source
DXXX TAF 2020/11/25 18:21 UTC NOAA

TAF DXXX 251700Z 2518/2624 20010KT 9999 SCT012 PROB30
TEMPO 2518/2521 TS BKN010 FEW020CB
BECMG 2522/2524 VRB03KT
BECMG 2608/2610 20010KT

Example: see airport list